createdAt,value
2022-09-10T00:00:08.518Z,99.29
2022-09-10T00:01:08.490Z,99.39
2022-09-10T00:02:08.519Z,99.60
2022-09-10T00:03:08.531Z,99.60
2022-09-10T00:04:08.439Z,99.69
2022-09-10T00:05:08.442Z,99.69
2022-09-10T00:06:08.559Z,99.69
2022-09-10T00:07:08.411Z,99.80
2022-09-10T00:08:08.401Z,99.80
2022-09-10T00:09:08.392Z,99.90
2022-09-10T00:10:08.379Z,99.99
2022-09-10T00:11:08.372Z,99.99
2022-09-10T00:12:08.403Z,99.99
2022-09-10T00:13:08.341Z,99.99
2022-09-10T00:14:08.331Z,99.99
2022-09-10T00:15:08.315Z,99.99
2022-09-10T00:16:08.340Z,99.99
2022-09-10T00:17:08.291Z,99.99
2022-09-10T00:18:08.307Z,99.99
2022-09-10T00:19:08.272Z,99.99
2022-09-10T00:20:08.262Z,99.99
2022-09-10T00:21:08.253Z,99.99
2022-09-10T00:22:08.235Z,99.99
2022-09-10T00:23:08.253Z,99.99
2022-09-10T00:24:08.218Z,99.99
2022-09-10T00:25:08.482Z,99.99
2022-09-10T00:26:08.205Z,99.99
2022-09-10T00:27:08.194Z,99.99
2022-09-10T00:28:08.166Z,99.99
2022-09-10T00:29:08.174Z,99.99
2022-09-10T00:30:08.144Z,99.99
2022-09-10T00:31:08.162Z,99.99
2022-09-10T00:32:08.129Z,99.99
2022-09-10T00:33:08.115Z,99.99
2022-09-10T00:34:08.135Z,99.99
2022-09-10T00:35:08.101Z,99.99
2022-09-10T00:36:08.075Z,99.99
2022-09-10T00:37:08.078Z,99.99
2022-09-10T00:38:08.056Z,99.99
2022-09-10T00:39:08.056Z,99.99
2022-09-10T00:40:08.112Z,99.99
2022-09-10T00:41:08.026Z,99.99
2022-09-10T00:42:08.125Z,99.99
2022-09-10T00:43:08.017Z,99.99
2022-09-10T00:44:07.987Z,99.99
2022-09-10T00:45:08.010Z,99.99
2022-09-10T00:46:07.968Z,99.99
2022-09-10T00:47:07.949Z,99.99
2022-09-10T00:48:07.938Z,99.99
2022-09-10T00:49:07.939Z,99.99
2022-09-10T00:50:07.919Z,99.99
2022-09-10T00:51:07.929Z,99.99
2022-09-10T00:52:07.888Z,99.99
2022-09-10T00:53:07.901Z,99.99
2022-09-10T00:54:07.870Z,99.99
2022-09-10T00:55:07.865Z,99.99
2022-09-10T00:56:07.880Z,99.99
2022-09-10T00:57:07.840Z,99.99
2022-09-10T00:58:07.842Z,99.99
2022-09-10T00:59:07.811Z,99.99
2022-09-10T01:00:07.814Z,99.99
2022-09-10T01:01:07.867Z,99.99
2022-09-10T01:02:07.888Z,99.99
2022-09-10T01:03:07.783Z,99.99
2022-09-10T01:04:07.770Z,99.99
2022-09-10T01:05:07.750Z,99.99
2022-09-10T01:06:07.752Z,99.99
2022-09-10T01:07:07.794Z,99.99
2022-09-10T01:08:07.716Z,99.99
2022-09-10T01:09:07.711Z,99.99
2022-09-10T01:10:07.719Z,99.99
2022-09-10T01:11:07.684Z,99.99
2022-09-10T01:12:07.672Z,99.99
2022-09-10T01:13:07.682Z,99.99
2022-09-10T01:14:07.654Z,99.99
2022-09-10T01:15:07.635Z,99.99
2022-09-10T01:16:07.664Z,99.99
2022-09-10T01:17:07.607Z,99.99
2022-09-10T01:18:07.634Z,99.99
2022-09-10T01:19:07.584Z,99.99
2022-09-10T01:20:07.574Z,99.99
2022-09-10T01:21:07.564Z,99.99
2022-09-10T01:22:07.555Z,99.99
2022-09-10T01:23:07.555Z,99.99
2022-09-10T01:24:07.570Z,99.99
2022-09-10T01:25:07.523Z,99.99
2022-09-10T01:26:07.507Z,99.99
2022-09-10T01:27:07.500Z,99.99
2022-09-10T01:28:07.503Z,99.99
2022-09-10T01:29:07.508Z,99.99
2022-09-10T01:30:07.467Z,99.99
2022-09-10T01:31:07.522Z,99.99
2022-09-10T01:32:07.446Z,99.99
2022-09-10T01:33:07.441Z,99.99
2022-09-10T01:34:07.418Z,99.99
2022-09-10T01:35:07.429Z,99.99
2022-09-10T01:36:07.401Z,99.99
2022-09-10T01:37:07.388Z,99.99
2022-09-10T01:38:07.368Z,99.99
2022-09-10T01:39:07.362Z,99.99
2022-09-10T01:40:07.433Z,99.99
2022-09-10T01:41:07.341Z,99.99
2022-09-10T01:42:07.337Z,99.99
2022-09-10T01:43:07.320Z,99.99
2022-09-10T01:44:07.313Z,99.99
2022-09-10T01:45:07.283Z,99.99
2022-09-10T01:46:07.292Z,99.99
2022-09-10T01:47:07.293Z,99.99
2022-09-10T01:48:07.272Z,99.99
2022-09-10T01:49:07.241Z,99.99
2022-09-10T01:50:07.234Z,99.99
2022-09-10T01:51:07.321Z,99.99
2022-09-10T01:52:07.223Z,99.99
2022-09-10T01:53:07.216Z,99.99
2022-09-10T01:54:07.193Z,99.99
2022-09-10T01:55:07.190Z,99.99
2022-09-10T01:56:07.163Z,99.99
2022-09-10T01:57:07.182Z,99.99
2022-09-10T01:58:07.141Z,99.99
2022-09-10T01:59:07.132Z,99.99
2022-09-10T02:00:07.153Z,99.99
2022-09-10T02:01:07.181Z,99.99
2022-09-10T02:02:07.159Z,99.99
2022-09-10T02:03:07.080Z,99.99
2022-09-10T02:04:07.115Z,99.99
2022-09-10T02:05:07.077Z,99.99
2022-09-10T02:06:07.050Z,99.99
2022-09-10T02:07:07.032Z,99.99
2022-09-10T02:08:07.045Z,99.99
2022-09-10T02:09:07.017Z,99.99
2022-09-10T02:10:07.025Z,99.99
2022-09-10T02:11:06.993Z,99.99
2022-09-10T02:12:06.975Z,99.99
2022-09-10T02:13:06.966Z,99.99
2022-09-10T02:14:07.026Z,99.99
2022-09-10T02:15:06.961Z,99.99
2022-09-10T02:16:06.964Z,99.99
2022-09-10T02:17:06.925Z,99.99
2022-09-10T02:18:06.915Z,99.99
2022-09-10T02:19:06.924Z,99.99
2022-09-10T02:20:06.918Z,99.99
2022-09-10T02:21:06.878Z,99.99
2022-09-10T02:22:06.888Z,99.99
2022-09-10T02:23:06.848Z,99.99
2022-09-10T02:24:06.846Z,99.99
2022-09-10T02:25:06.839Z,99.99
2022-09-10T02:26:06.847Z,99.99
2022-09-10T02:27:06.850Z,99.99
2022-09-10T02:28:06.798Z,99.99
2022-09-10T02:29:06.789Z,99.99
2022-09-10T02:30:06.778Z,99.99
2022-09-10T02:31:06.768Z,99.99
2022-09-10T02:32:06.787Z,99.99
2022-09-10T02:33:06.772Z,99.99
2022-09-10T02:34:06.740Z,99.99
2022-09-10T02:35:06.728Z,99.99
2022-09-10T02:36:06.715Z,99.99
2022-09-10T02:37:06.699Z,99.99
2022-09-10T02:38:06.718Z,99.99
2022-09-10T02:39:06.670Z,99.99
2022-09-10T02:40:06.714Z,99.99
2022-09-10T02:41:06.650Z,99.99
2022-09-10T02:42:06.639Z,99.99
2022-09-10T02:43:06.641Z,99.99
2022-09-10T02:44:06.642Z,99.99
2022-09-10T02:45:06.603Z,99.99
2022-09-10T02:46:06.606Z,99.99
2022-09-10T02:47:06.590Z,99.99
2022-09-10T02:48:06.582Z,99.99
2022-09-10T02:49:06.579Z,99.99
2022-09-10T02:50:06.574Z,99.99
2022-09-10T02:51:06.534Z,99.99
2022-09-10T02:52:06.532Z,99.99
2022-09-10T02:53:06.513Z,99.99
2022-09-10T02:54:06.519Z,99.99
2022-09-10T02:55:06.513Z,99.99
2022-09-10T02:56:06.535Z,99.99
2022-09-10T02:57:06.483Z,99.99
2022-09-10T02:58:06.463Z,99.99
2022-09-10T02:59:06.454Z,99.99
2022-09-10T03:00:06.436Z,99.99
2022-09-10T03:01:06.464Z,99.99
2022-09-10T03:02:06.502Z,99.99
2022-09-10T03:03:06.446Z,99.99
2022-09-10T03:04:06.386Z,99.99
2022-09-10T03:05:06.409Z,99.99
2022-09-10T03:06:06.369Z,99.99
2022-09-10T03:07:06.381Z,99.99
2022-09-10T03:08:06.405Z,99.99
2022-09-10T03:09:06.355Z,99.99
2022-09-10T03:10:06.326Z,99.99
2022-09-10T03:11:06.317Z,99.99
2022-09-10T03:12:06.312Z,99.99
2022-09-10T03:13:06.302Z,99.99
2022-09-10T03:14:06.428Z,99.99
2022-09-10T03:15:06.276Z,99.99
2022-09-10T03:16:06.320Z,99.99
2022-09-10T03:17:06.247Z,99.99
2022-09-10T03:18:06.243Z,99.99
2022-09-10T03:19:06.237Z,99.99
2022-09-10T03:20:06.242Z,99.99
2022-09-10T03:21:06.207Z,99.99
2022-09-10T03:22:06.197Z,99.99
2022-09-10T03:23:06.204Z,99.99
2022-09-10T03:24:06.173Z,99.99
2022-09-10T03:25:06.189Z,99.99
2022-09-10T03:26:06.149Z,99.99
2022-09-10T03:27:06.138Z,99.99
2022-09-10T03:28:06.119Z,99.99
2022-09-10T03:29:06.122Z,99.99
2022-09-10T03:30:06.103Z,99.99
2022-09-10T03:31:06.131Z,99.99
2022-09-10T03:32:06.082Z,99.99
2022-09-10T03:33:06.063Z,99.99
2022-09-10T03:34:06.060Z,99.99
2022-09-10T03:35:06.050Z,99.99
2022-09-10T03:36:06.031Z,99.99
2022-09-10T03:37:06.062Z,99.99
2022-09-10T03:38:06.019Z,99.99
2022-09-10T03:39:06.002Z,99.99
2022-09-10T03:40:06.043Z,99.99
2022-09-10T03:41:05.996Z,99.99
2022-09-10T03:42:05.972Z,99.99
2022-09-10T03:43:05.993Z,99.99
2022-09-10T03:44:05.940Z,99.99
2022-09-10T03:45:05.937Z,99.99
2022-09-10T03:46:05.979Z,99.99
2022-09-10T03:47:05.904Z,99.99
2022-09-10T03:48:05.924Z,99.99
2022-09-10T03:49:05.915Z,99.99
2022-09-10T03:50:05.876Z,99.99
2022-09-10T03:51:05.876Z,99.99
2022-09-10T03:52:05.844Z,99.99
2022-09-10T03:53:05.846Z,99.99
2022-09-10T03:54:05.876Z,99.99
2022-09-10T03:55:05.815Z,99.99
2022-09-10T03:56:05.807Z,99.99
2022-09-10T03:57:05.808Z,99.99
2022-09-10T03:58:05.776Z,99.99
2022-09-10T03:59:05.766Z,99.99
2022-09-10T04:00:05.798Z,99.99
2022-09-10T04:01:05.789Z,99.99
2022-09-10T04:02:05.816Z,99.99
2022-09-10T04:03:05.763Z,99.99
2022-09-10T04:04:05.710Z,99.99
2022-09-10T04:05:05.699Z,99.99
2022-09-10T04:06:05.719Z,99.99
2022-09-10T04:07:05.669Z,99.99
2022-09-10T04:08:05.665Z,99.99
2022-09-10T04:09:05.647Z,99.99
2022-09-10T04:10:05.637Z,99.99
2022-09-10T04:11:05.636Z,99.99
2022-09-10T04:12:05.640Z,99.99
2022-09-10T04:13:05.601Z,99.99
2022-09-10T04:14:05.598Z,99.99
2022-09-10T04:15:05.583Z,99.99
2022-09-10T04:16:05.610Z,99.99
2022-09-10T04:17:05.583Z,99.99
2022-09-10T04:18:05.571Z,99.99
2022-09-10T04:19:05.537Z,99.99
2022-09-10T04:20:05.519Z,99.99
2022-09-10T04:21:05.509Z,99.99
2022-09-10T04:22:05.551Z,99.99
2022-09-10T04:23:05.519Z,99.99
2022-09-10T04:24:05.488Z,99.99
2022-09-10T04:25:05.470Z,99.99
2022-09-10T04:26:05.463Z,99.99
2022-09-10T04:27:05.442Z,99.99
2022-09-10T04:28:05.447Z,99.99
2022-09-10T04:29:05.477Z,99.99
2022-09-10T04:30:05.411Z,99.99
2022-09-10T04:31:05.404Z,99.99
2022-09-10T04:32:05.410Z,99.99
2022-09-10T04:33:05.382Z,99.99
2022-09-10T04:34:05.469Z,99.99
2022-09-10T04:35:05.384Z,99.99
2022-09-10T04:36:05.342Z,99.99
2022-09-10T04:37:05.374Z,99.99
2022-09-10T04:38:05.342Z,99.99
2022-09-10T04:39:05.315Z,99.99
2022-09-10T04:40:05.353Z,99.99
2022-09-10T04:41:05.477Z,99.99
2022-09-10T04:42:05.284Z,99.99
2022-09-10T04:43:05.264Z,99.99
2022-09-10T04:44:05.255Z,99.99
2022-09-10T04:45:05.244Z,99.99
2022-09-10T04:46:05.272Z,99.99
2022-09-10T04:47:05.301Z,99.99
2022-09-10T04:48:07.177Z,99.99
2022-09-10T04:49:05.217Z,99.99
2022-09-10T04:50:05.186Z,99.99
2022-09-10T04:51:16.102Z,99.99
2022-09-10T04:52:06.207Z,99.99
2022-09-10T04:53:05.156Z,99.99
2022-09-10T04:54:05.144Z,99.99
2022-09-10T04:55:05.127Z,99.99
2022-09-10T04:56:05.128Z,99.99
2022-09-10T04:57:05.110Z,99.99
2022-09-10T04:58:05.299Z,99.99
2022-09-10T04:59:05.098Z,99.99
2022-09-10T05:00:05.077Z,99.99
2022-09-10T05:01:05.134Z,99.99
2022-09-10T05:02:05.066Z,99.99
2022-09-10T05:03:05.069Z,99.99
2022-09-10T05:04:05.030Z,99.99
2022-09-10T05:05:05.050Z,99.99
2022-09-10T05:06:05.036Z,99.99
2022-09-10T05:07:05.001Z,99.99
2022-09-10T05:08:04.981Z,99.99
2022-09-10T05:09:05.002Z,99.99
2022-09-10T05:10:04.971Z,99.99
2022-09-10T05:11:04.952Z,99.99
2022-09-10T05:12:04.940Z,99.99
2022-09-10T05:13:04.930Z,99.99
2022-09-10T05:14:04.914Z,99.99
2022-09-10T05:15:04.931Z,99.99
2022-09-10T05:16:04.963Z,99.99
2022-09-10T05:17:04.886Z,99.99
2022-09-10T05:18:04.873Z,99.99
2022-09-10T05:19:04.861Z,99.99
2022-09-10T05:20:04.852Z,99.99
2022-09-10T05:21:04.873Z,99.99
2022-09-10T05:22:04.822Z,99.99
2022-09-10T05:23:04.824Z,99.99
2022-09-10T05:24:04.802Z,99.99
2022-09-10T05:25:04.792Z,99.99
2022-09-10T05:26:04.816Z,99.99
2022-09-10T05:27:04.776Z,99.99
2022-09-10T05:28:04.763Z,99.99
2022-09-10T05:29:04.774Z,99.99
2022-09-10T05:30:04.745Z,99.99
2022-09-10T05:31:04.733Z,99.99
2022-09-10T05:32:04.746Z,99.99
2022-09-10T05:33:04.704Z,99.99
2022-09-10T05:34:04.707Z,99.99
2022-09-10T05:35:04.688Z,99.99
2022-09-10T05:36:04.668Z,99.99
2022-09-10T05:37:04.663Z,99.99
2022-09-10T05:38:04.680Z,99.99
2022-09-10T05:39:04.656Z,99.99
2022-09-10T05:40:04.661Z,99.99
2022-09-10T05:41:04.648Z,99.99
2022-09-10T05:42:04.606Z,99.99
2022-09-10T05:43:04.611Z,99.99
2022-09-10T05:44:04.657Z,99.99
2022-09-10T05:45:04.583Z,99.99
2022-09-10T05:46:04.691Z,99.99
2022-09-10T05:47:04.561Z,99.99
2022-09-10T05:48:04.569Z,99.99
2022-09-10T05:49:04.536Z,99.99
2022-09-10T05:50:04.538Z,99.99
2022-09-10T05:51:04.519Z,99.99
2022-09-10T05:52:04.491Z,99.99
2022-09-10T05:53:04.478Z,99.99
2022-09-10T05:54:04.479Z,99.99
2022-09-10T05:55:04.489Z,99.99
2022-09-10T05:56:04.448Z,99.99
2022-09-10T05:57:04.487Z,99.99
2022-09-10T05:58:04.420Z,99.99
2022-09-10T05:59:04.449Z,99.99
2022-09-10T06:00:04.411Z,99.99
2022-09-10T06:01:04.440Z,99.99
2022-09-10T06:02:04.438Z,99.99
2022-09-10T06:03:04.459Z,99.99
2022-09-10T06:04:04.362Z,99.99
2022-09-10T06:05:04.350Z,99.99
2022-09-10T06:06:04.339Z,99.99
2022-09-10T06:07:04.340Z,99.99
2022-09-10T06:08:08.362Z,99.99
2022-09-10T06:09:04.320Z,99.99
2022-09-10T06:10:04.316Z,99.99
2022-09-10T06:11:04.281Z,99.99
2022-09-10T06:12:04.298Z,99.99
2022-09-10T06:13:04.264Z,99.99
2022-09-10T06:14:04.247Z,99.99
2022-09-10T06:15:04.292Z,99.99
2022-09-10T06:16:04.250Z,99.99
2022-09-10T06:17:04.223Z,99.99
2022-09-10T06:18:04.373Z,99.99
2022-09-10T06:19:04.183Z,99.99
2022-09-10T06:20:04.193Z,99.99
2022-09-10T06:21:04.179Z,99.99
2022-09-10T06:22:04.147Z,99.99
2022-09-10T06:23:04.160Z,99.99
2022-09-10T06:24:04.189Z,99.99
2022-09-10T06:25:04.136Z,99.99
2022-09-10T06:26:04.140Z,99.99
2022-09-10T06:27:04.086Z,99.99
2022-09-10T06:28:04.095Z,99.99
2022-09-10T06:29:04.075Z,99.99
2022-09-10T06:30:04.082Z,99.99
2022-09-10T06:31:04.103Z,99.99
2022-09-10T06:32:04.035Z,99.99
2022-09-10T06:33:04.025Z,99.99
2022-09-10T06:34:04.015Z,99.99
2022-09-10T06:35:04.049Z,99.99
2022-09-10T06:36:03.987Z,99.99
2022-09-10T06:37:03.987Z,99.99
2022-09-10T06:38:03.968Z,99.99
2022-09-10T06:39:03.958Z,99.99
2022-09-10T06:40:04.000Z,99.99
2022-09-10T06:41:04.048Z,99.99
2022-09-10T06:42:03.937Z,99.99
2022-09-10T06:43:03.908Z,99.99
2022-09-10T06:44:03.890Z,99.99
2022-09-10T06:45:03.891Z,99.99
2022-09-10T06:46:03.980Z,99.99
2022-09-10T06:47:39.356Z,99.99
2022-09-10T06:48:38.342Z,99.99
2022-09-10T06:49:04.849Z,99.99
2022-09-10T06:50:03.824Z,99.99
2022-09-10T06:51:03.811Z,99.99
2022-09-10T06:52:03.819Z,99.99
2022-09-10T06:53:03.790Z,99.99
2022-09-10T06:54:03.782Z,99.99
2022-09-10T06:55:03.809Z,99.99
2022-09-10T06:56:03.753Z,99.99
2022-09-10T06:57:03.776Z,99.99
2022-09-10T06:58:03.741Z,99.99
2022-09-10T06:59:03.717Z,99.99
2022-09-10T07:00:03.702Z,99.99
2022-09-10T07:01:03.727Z,99.99
2022-09-10T07:02:04.476Z,99.99
2022-09-10T07:03:03.707Z,99.99
2022-09-10T07:04:03.673Z,99.99
2022-09-10T07:05:03.643Z,99.99
2022-09-10T07:06:03.632Z,99.99
2022-09-10T07:07:03.653Z,99.99
2022-09-10T07:08:03.655Z,99.99
2022-09-10T07:09:03.607Z,99.99
2022-09-10T07:10:03.595Z,99.99
2022-09-10T07:11:03.575Z,99.99
2022-09-10T07:12:03.556Z,99.99
2022-09-10T07:13:03.544Z,99.52
2022-09-10T07:14:03.574Z,99.32
2022-09-10T07:15:03.524Z,99.16
2022-09-10T07:16:03.588Z,98.66
2022-09-10T07:17:03.495Z,98.36
2022-09-10T07:18:03.485Z,98.20
2022-09-10T07:19:03.476Z,98.25
2022-09-10T07:20:03.505Z,97.90
2022-09-10T07:21:03.471Z,98.10
2022-09-10T07:22:03.444Z,98.50
2022-09-10T07:23:03.436Z,98.71
2022-09-10T07:24:03.445Z,98.61
2022-09-10T07:25:03.438Z,98.40
2022-09-10T07:26:03.397Z,98.81
2022-09-10T07:27:03.392Z,98.71
2022-09-10T07:28:03.379Z,98.71
2022-09-10T07:29:03.360Z,98.46
2022-09-10T07:30:03.354Z,98.36
2022-09-10T07:31:03.434Z,97.85
2022-09-10T07:32:03.333Z,97.75
2022-09-10T07:33:03.312Z,97.71
2022-09-10T07:34:03.313Z,97.30
2022-09-10T07:35:03.293Z,96.85
2022-09-10T07:36:03.969Z,95.94
2022-09-10T07:37:03.290Z,95.54
2022-09-10T07:38:03.250Z,94.93
2022-09-10T07:39:03.239Z,95.09
2022-09-10T07:40:03.248Z,94.59
2022-09-10T07:41:03.220Z,94.02
2022-09-10T07:42:03.204Z,93.52
2022-09-10T07:43:03.222Z,94.08
2022-09-10T07:44:03.182Z,93.48
2022-09-10T07:45:03.237Z,93.43
2022-09-10T07:46:04.419Z,92.58
2022-09-10T07:47:03.182Z,91.57
2022-09-10T07:48:03.133Z,91.42
2022-09-10T07:49:03.224Z,90.72
2022-09-10T07:50:03.111Z,90.62
2022-09-10T07:51:03.102Z,90.62
2022-09-10T07:52:03.218Z,90.86
2022-09-10T07:53:03.076Z,90.77
2022-09-10T07:54:03.063Z,90.56
2022-09-10T07:55:03.100Z,91.21
2022-09-10T07:56:03.036Z,91.51
2022-09-10T07:57:03.044Z,91.51
2022-09-10T07:58:03.016Z,91.31
2022-09-10T07:59:03.019Z,91.51
2022-09-10T08:00:03.023Z,91.71
2022-09-10T08:01:03.039Z,91.61
2022-09-10T08:02:02.994Z,91.31
2022-09-10T08:03:02.968Z,91.46
2022-09-10T08:04:05.155Z,91.86
2022-09-10T08:05:02.938Z,92.16
2022-09-10T08:06:02.977Z,92.16
2022-09-10T08:07:02.920Z,91.91
2022-09-10T08:08:02.898Z,91.82
2022-09-10T08:09:02.899Z,91.71
2022-09-10T08:10:02.878Z,91.71
2022-09-10T08:11:02.867Z,91.82
2022-09-10T08:12:02.881Z,91.51
2022-09-10T08:13:02.847Z,91.57
2022-09-10T08:14:02.864Z,91.27
2022-09-10T08:15:02.847Z,90.86
2022-09-10T08:16:02.820Z,90.86
2022-09-10T08:17:02.829Z,90.26
2022-09-10T08:18:02.789Z,90.42
2022-09-10T08:19:02.781Z,90.06
2022-09-10T08:20:02.769Z,90.56
2022-09-10T08:21:02.757Z,90.66
2022-09-10T08:22:02.741Z,90.66
2022-09-10T08:23:02.752Z,90.56
2022-09-10T08:24:02.726Z,90.77
2022-09-10T08:25:02.759Z,91.01
2022-09-10T08:26:02.701Z,91.41
2022-09-10T08:27:02.719Z,91.71
2022-09-10T08:28:02.687Z,91.41
2022-09-10T08:29:02.713Z,91.06
2022-09-10T08:30:02.642Z,91.27
2022-09-10T08:31:02.717Z,91.37
2022-09-10T08:32:02.633Z,91.06
2022-09-10T08:33:02.624Z,90.66
2022-09-10T08:34:02.642Z,90.56
2022-09-10T08:35:02.605Z,90.56
2022-09-10T08:36:02.593Z,90.97
2022-09-10T08:37:02.574Z,91.27
2022-09-10T08:38:02.554Z,91.37
2022-09-10T08:39:06.299Z,92.07
2022-09-10T08:40:03.631Z,92.47
2022-09-10T08:41:02.529Z,92.43
2022-09-10T08:42:02.529Z,92.33
2022-09-10T08:43:02.535Z,92.27
2022-09-10T08:44:02.527Z,92.18
2022-09-10T08:45:02.518Z,92.98
2022-09-10T08:46:02.571Z,92.82
2022-09-10T08:47:02.459Z,93.18
2022-09-10T08:48:02.445Z,93.38
2022-09-10T08:49:02.436Z,93.18
2022-09-10T08:50:02.437Z,92.78
2022-09-10T08:51:02.449Z,92.58
2022-09-10T08:52:02.400Z,92.07
2022-09-10T08:53:02.386Z,92.52
2022-09-10T08:54:02.378Z,93.02
2022-09-10T08:55:02.368Z,93.43
2022-09-10T08:56:02.359Z,93.33
2022-09-10T08:57:02.363Z,93.88
2022-09-10T08:58:02.339Z,94.04
2022-09-10T08:59:02.318Z,94.99
2022-09-10T09:00:02.321Z,95.49
2022-09-10T09:01:02.301Z,95.94
2022-09-10T09:02:02.339Z,96.34
2022-09-10T09:03:02.352Z,96.85
2022-09-10T09:04:06.021Z,97.05
2022-09-10T09:05:02.260Z,96.95
2022-09-10T09:06:02.231Z,97.25
2022-09-10T09:07:02.220Z,96.95
2022-09-10T09:08:02.262Z,97.05
2022-09-10T09:09:02.202Z,97.25
2022-09-10T09:10:02.202Z,97.66
2022-09-10T09:11:02.183Z,97.66
2022-09-10T09:12:02.172Z,97.40
2022-09-10T09:13:02.152Z,97.40
2022-09-10T09:14:02.173Z,97.71
2022-09-10T09:15:05.726Z,97.80
2022-09-10T09:16:03.172Z,97.91
2022-09-10T09:17:02.113Z,98.11
2022-09-10T09:18:02.104Z,98.21
2022-09-10T09:19:02.090Z,98.21
2022-09-10T09:20:02.094Z,98.41
2022-09-10T09:21:02.066Z,98.21
2022-09-10T09:22:02.052Z,98.11
2022-09-10T09:23:02.035Z,98.21
2022-09-10T09:24:13.643Z,98.11
2022-09-10T09:25:03.057Z,98.31
2022-09-10T09:26:02.004Z,97.80
2022-09-10T09:27:02.001Z,97.91
2022-09-10T09:28:01.976Z,98.11
2022-09-10T09:29:01.966Z,98.21
2022-09-10T09:30:01.955Z,98.31
2022-09-10T09:31:04.378Z,98.51
2022-09-10T09:32:01.938Z,98.41
2022-09-10T09:33:01.927Z,98.41
2022-09-10T09:34:01.908Z,98.31
2022-09-10T09:35:01.898Z,98.27
2022-09-10T09:36:01.900Z,98.16
2022-09-10T09:37:01.898Z,98.07
2022-09-10T09:38:01.866Z,98.16
2022-09-10T09:39:01.852Z,98.27
2022-09-10T09:40:01.865Z,97.96
2022-09-10T09:41:01.826Z,97.86
2022-09-10T09:42:01.818Z,97.86
2022-09-10T09:43:01.864Z,97.56
2022-09-10T09:44:01.808Z,97.56
2022-09-10T09:45:01.781Z,97.81
2022-09-10T09:46:01.854Z,98.11
2022-09-10T09:47:01.760Z,97.61
2022-09-10T09:48:01.749Z,97.06
2022-09-10T09:49:01.761Z,96.76
2022-09-10T09:50:01.742Z,95.95
2022-09-10T09:51:01.711Z,95.61
2022-09-10T09:52:01.700Z,95.61
2022-09-10T09:53:01.690Z,95.56
2022-09-10T09:54:34.470Z,95.06
2022-09-10T09:55:14.438Z,94.85
2022-09-10T09:56:02.673Z,94.51
2022-09-10T09:57:01.656Z,93.70
2022-09-10T09:58:01.642Z,93.66
2022-09-10T09:59:01.631Z,93.05
2022-09-10T10:00:01.613Z,93.35
2022-09-10T10:01:01.775Z,92.35
2022-09-10T10:02:01.607Z,92.71
2022-09-10T10:03:01.575Z,92.36
2022-09-10T10:04:01.568Z,91.55
2022-09-10T10:05:01.563Z,90.55
2022-09-10T10:06:01.547Z,90.95
2022-09-10T10:07:01.565Z,90.55
2022-09-10T10:08:01.519Z,89.89
2022-09-10T10:09:01.506Z,90.25
2022-09-10T10:10:01.493Z,90.55
2022-09-10T10:11:01.477Z,90.41
2022-09-10T10:12:01.476Z,90.20
2022-09-10T10:13:01.475Z,88.29
2022-09-10T10:14:01.450Z,87.53
2022-09-10T10:15:01.448Z,87.98
2022-09-10T10:16:01.490Z,89.08
2022-09-10T10:17:01.406Z,88.78
2022-09-10T10:18:01.418Z,88.13
2022-09-10T10:19:01.391Z,88.64
2022-09-10T10:20:01.380Z,88.59
2022-09-10T10:21:01.392Z,88.03
2022-09-10T10:22:01.349Z,87.53
2022-09-10T10:23:01.338Z,87.43
2022-09-10T10:24:01.359Z,87.67
2022-09-10T10:25:01.319Z,88.38
2022-09-10T10:26:01.314Z,88.58
2022-09-10T10:27:01.303Z,88.82
2022-09-10T10:28:01.288Z,89.23
2022-09-10T10:29:01.300Z,89.73
2022-09-10T10:30:01.271Z,90.03
2022-09-10T10:31:01.265Z,89.83
2022-09-10T10:32:05.499Z,89.53
2022-09-10T10:33:01.235Z,89.32
2022-09-10T10:34:01.211Z,89.48
2022-09-10T10:35:01.261Z,89.48
2022-09-10T10:36:01.191Z,89.28
2022-09-10T10:37:01.174Z,89.34
2022-09-10T10:38:01.172Z,90.85
2022-09-10T10:39:01.152Z,90.75
2022-09-10T10:40:01.360Z,90.55
2022-09-10T10:41:01.162Z,90.29
2022-09-10T10:42:01.157Z,90.33
2022-09-10T10:43:01.103Z,91.30
2022-09-10T10:44:01.104Z,91.44
2022-09-10T10:45:01.083Z,90.84
2022-09-10T10:46:01.124Z,90.94
2022-09-10T10:47:01.075Z,90.94
2022-09-10T10:48:01.045Z,91.30
2022-09-10T10:49:03.666Z,90.99
2022-09-10T10:50:01.024Z,89.99
2022-09-10T10:51:01.014Z,89.99
2022-09-10T10:52:01.007Z,90.15
2022-09-10T10:53:01.015Z,90.00
2022-09-10T10:54:00.977Z,89.90
2022-09-10T10:55:00.966Z,88.45
2022-09-10T10:56:00.956Z,88.65
2022-09-10T10:57:00.939Z,88.55
2022-09-10T10:58:00.929Z,87.55
2022-09-10T10:59:00.960Z,86.34
2022-09-10T11:00:00.908Z,86.85
2022-09-10T11:01:00.898Z,86.44
2022-09-10T11:02:00.961Z,87.30
2022-09-10T11:03:00.878Z,86.30
2022-09-10T11:04:00.862Z,86.26
2022-09-10T11:05:00.869Z,84.95
2022-09-10T11:06:00.838Z,85.44
2022-09-10T11:07:00.834Z,86.85
2022-09-10T11:08:00.809Z,87.24
2022-09-10T11:09:00.801Z,86.85
2022-09-10T11:10:00.831Z,87.55
2022-09-10T11:11:00.780Z,86.85
2022-09-10T11:12:00.774Z,87.24
2022-09-10T11:13:00.762Z,86.94
2022-09-10T11:14:00.753Z,87.35
2022-09-10T11:15:00.740Z,87.59
2022-09-10T11:16:00.810Z,88.59
2022-09-10T11:17:00.742Z,89.14
2022-09-10T11:18:00.717Z,90.34
2022-09-10T11:19:00.729Z,91.05
2022-09-10T11:20:24.787Z,90.99
2022-09-10T11:21:01.702Z,92.10
2022-09-10T11:22:00.663Z,92.50
2022-09-10T11:23:00.644Z,92.60
2022-09-10T11:24:00.633Z,92.66
2022-09-10T11:25:00.636Z,93.66
2022-09-10T11:26:00.609Z,93.66
2022-09-10T11:27:00.616Z,92.72
2022-09-10T11:28:00.584Z,92.92
2022-09-10T11:29:00.579Z,91.75
2022-09-10T11:30:00.558Z,92.72
2022-09-10T11:31:00.599Z,92.27
2022-09-10T11:32:00.583Z,92.53
2022-09-10T11:33:00.525Z,91.68
2022-09-10T11:34:00.519Z,90.58
2022-09-10T11:35:00.507Z,89.23
2022-09-10T11:36:00.532Z,87.57
2022-09-10T11:37:00.488Z,87.96
2022-09-10T11:38:00.503Z,88.53
2022-09-10T11:39:00.460Z,88.02
2022-09-10T11:40:00.479Z,86.16
2022-09-10T11:41:00.441Z,88.12
2022-09-10T11:42:00.419Z,85.86
2022-09-10T11:43:00.415Z,86.26
2022-09-10T11:44:00.421Z,87.62
2022-09-10T11:45:00.389Z,86.82
2022-09-10T11:46:00.394Z,87.32
2022-09-10T11:47:00.369Z,86.68
2022-09-10T11:48:00.352Z,85.78
2022-09-10T11:49:00.381Z,85.02
2022-09-10T11:50:00.330Z,85.22
2022-09-10T11:51:00.342Z,84.27
2022-09-10T11:52:00.310Z,84.97
2022-09-10T11:53:00.301Z,84.57
2022-09-10T11:54:00.282Z,84.63
2022-09-10T11:55:00.306Z,84.23
2022-09-10T11:56:00.282Z,84.67
2022-09-10T11:57:00.254Z,81.16
2022-09-10T11:58:00.253Z,81.06
2022-09-10T11:59:00.256Z,81.23
2022-09-10T12:00:00.229Z,80.18
2022-09-10T12:01:00.243Z,80.46
2022-09-10T12:02:00.259Z,79.32
2022-09-10T12:03:00.182Z,78.81
2022-09-10T12:04:00.220Z,78.78
2022-09-10T12:05:00.173Z,79.18
2022-09-10T12:06:00.155Z,79.58
2022-09-10T12:07:00.168Z,79.52
2022-09-10T12:08:00.122Z,78.55
2022-09-10T12:09:00.105Z,78.59
2022-09-10T12:10:00.105Z,82.00
2022-09-10T12:11:00.114Z,82.97
2022-09-10T12:12:00.118Z,82.67
2022-09-10T12:13:00.084Z,83.21
2022-09-10T12:14:00.084Z,83.47
2022-09-10T12:15:00.038Z,83.37
2022-09-10T12:16:00.087Z,82.76
2022-09-10T12:17:00.051Z,83.63
2022-09-10T12:18:00.022Z,82.17
2022-09-10T12:18:59.997Z,83.07
2022-09-10T12:19:59.991Z,81.67
2022-09-10T12:20:59.971Z,81.40
2022-09-10T12:21:59.960Z,82.70
2022-09-10T12:22:59.972Z,82.95
2022-09-10T12:23:59.970Z,83.55
2022-09-10T12:24:59.933Z,83.85
2022-09-10T12:25:59.921Z,83.51
2022-09-10T12:26:59.923Z,83.01
2022-09-10T12:27:59.959Z,83.11
2022-09-10T12:28:59.877Z,81.96
2022-09-10T12:29:59.872Z,81.96
2022-09-10T12:30:59.892Z,81.46
2022-09-10T12:31:59.856Z,81.12
2022-09-10T12:32:59.832Z,78.52
2022-09-10T12:33:59.842Z,79.08
2022-09-10T12:34:59.819Z,79.85
2022-09-10T12:35:59.804Z,79.54
2022-09-10T12:36:59.789Z,78.44
2022-09-10T12:37:59.773Z,79.24
2022-09-10T12:38:59.802Z,77.94
2022-09-10T12:39:59.772Z,78.68
2022-09-10T12:40:59.734Z,78.78
2022-09-10T12:41:59.734Z,78.34
2022-09-10T12:42:59.705Z,78.84
2022-09-10T12:43:59.696Z,78.04
2022-09-10T12:44:59.707Z,78.54
2022-09-10T12:45:59.732Z,78.34
2022-09-10T12:46:59.668Z,77.54
2022-09-10T12:47:59.672Z,78.38
2022-09-10T12:48:59.666Z,78.42
2022-09-10T12:49:59.627Z,79.92
2022-09-10T12:50:59.657Z,80.06
2022-09-10T12:51:59.607Z,80.16